Beaver Dam, Texas
Current Conditions -  °F | °C
As of 2:35 AM on Sunday 23 Nov 2014 (Local Time) from KOSA Reporting Station
Overcast Overcast  
Wind Chill: 61°   Ceiling: 700
Heat Index: 61°   Visibility: 10mi
Dew Point: 60°   Wind: 5mph
Humidity: 96%   Direction: 160°SSE
Pressure: 29.66"   Gusts: NA
Location:  33.4703°N, 94.6281°W
Report Text: KOSA 230835Z AUTO 16004KT 10SM OVC007 16/15 A2966 RMK AO1 T01600154
Loading
Personal Weather Stations






























Interactive Weather Map New forecast layout! Learn more

10-Day Weather Forecast

Advertisements
Track Severe Weather on mobile